NCAR-RAP Real-Time Weather Data

Output produced by METARs form (08 May 2021  00:55 UTC)
found at http://weather.rap.ucar.edu/surface/
 
KMFE 072353Z 09013G22KT 10SM CLR 29/18 A2999 RMK AO2 SLP154 T02940178 10328 20289 56016
KMFE 072253Z 11013G20KT 10SM SCT060 31/17 A3000 RMK AO2 SLP156 T03110167
KMFE 072153Z VRB05KT 10SM CLR 32/14 A3002 RMK AO2 SLP162 T03220139
KMFE 072053Z 13006G15KT 10SM CLR 32/14 A3004 RMK AO2 SLP170 T03170139 58030
KMFE 071953Z 08007KT 10SM CLR 31/15 A3007 RMK AO2 SLP182 T03110150
KMFE 071853Z 08007KT 050V120 10SM CLR 30/15 A3010 RMK AO2 SLP191 T03000150
KMFE 071753Z 10010G14KT 10SM CLR 30/15 A3013 RMK AO2 SLP201 T03000150 10300 20167 58010
KMFE 071653Z VRB04KT 10SM CLR 27/16 A3015 RMK AO2 SLP208 T02720161
KMFE 071553Z 00000KT 10SM CLR 26/17 A3016 RMK AO2 SLP212 T02560172
KMFE 071453Z VRB04KT 10SM FEW019 24/18 A3016 RMK AO2 SLP211 T02390178 51013
KMFE 071353Z 00000KT 10SM CLR 22/18 A3016 RMK AO2 SLP210 T02220178
KMFE 071253Z 00000KT 8SM FEW019 19/17 A3014 RMK AO2 SLP205 T01940172
KMFE 071245Z 00000KT 8SM SCT019 19/17 A3014 RMK AO2 T01890172
KMFE 071218Z 00000KT 9SM BKN017 18/16 A3013 RMK AO2 T01780161
KMFE 071153Z 00000KT 9SM SCT016 17/15 A3012 RMK AO2 SLP198 T01670150 10200 20167 53005
KMFE 071059Z 00000KT 9SM CLR 18/17 A3011 RMK AO2 T01780167
KMFE 071053Z AUTO 00000KT 9SM CLR 18/17 A3011 RMK AO2 SLP193 T01830167